Time;durP1;ratioP1;P1;durP2;ratioP2;P2;SDS_P1;SDS_P2;PMS_P1;PMS_P2;Temp;Humidity;BMP_temperature;BMP_pressure;BME280_temperature;BME280_humidity;BME280_pressure;Samples;Min_cycle;Max_cycle;Signal;HPM_P1;HPM_P2
2022/08/18 00:01:42;;;;;;;4.18;0.90;;;;;;;22.19;100.00;97826.31;15340889;19;20078;-72
2022/08/18 00:06:49;;;;;;;4.22;1.00;;;;;;;22.10;100.00;97812.19;15295519;19;20014;-75
2022/08/18 00:11:53;;;;;;;4.22;0.90;;;;;;;22.00;100.00;97812.03;15281943;19;20127;-74
2022/08/18 00:16:58;;;;;;;3.05;0.90;;;;;;;21.96;100.00;97816.34;15285415;19;20475;-73
2022/08/18 00:22:06;;;;;;;5.57;1.10;;;;;;;21.90;100.00;97820.09;15281600;19;20034;-74
2022/08/18 00:27:12;;;;;;;4.65;1.00;;;;;;;21.82;100.00;97822.16;15282417;19;20010;-74
2022/08/18 00:32:18;;;;;;;4.85;1.00;;;;;;;21.74;100.00;97819.84;15271372;19;20010;-75
2022/08/18 00:37:26;;;;;;;2.47;0.90;;;;;;;21.66;100.00;97815.59;15278075;19;20014;-74
2022/08/18 00:42:32;;;;;;;3.78;1.10;;;;;;;21.53;100.00;97805.78;15273273;19;20014;-75
2022/08/18 00:47:36;;;;;;;2.22;1.00;;;;;;;21.47;100.00;97806.75;15277539;19;20015;-73
2022/08/18 00:52:54;;;;;;;5.20;1.10;;;;;;;21.40;100.00;97798.69;15277666;19;20479;-73
2022/08/18 00:58:05;;;;;;;5.05;1.10;;;;;;;21.34;100.00;97805.16;15277744;19;20035;-75
2022/08/18 01:03:14;;;;;;;4.83;1.23;;;;;;;21.30;100.00;97803.16;15275613;19;20051;-74
2022/08/18 01:08:31;;;;;;;2.15;1.10;;;;;;;21.23;100.00;97793.19;15276760;19;20014;-72
2022/08/18 01:13:38;;;;;;;6.30;1.35;;;;;;;21.14;100.00;97800.13;15271532;19;20022;-72
2022/08/18 01:24:05;;;;;;;8.75;1.40;;;;;;;21.02;100.00;97793.88;15278165;19;20047;-74
2022/08/18 01:29:10;;;;;;;3.90;1.30;;;;;;;20.86;100.00;97785.41;15279337;19;20014;-74
2022/08/18 01:34:25;;;;;;;2.92;1.23;;;;;;;20.81;100.00;97790.75;15279256;19;20006;-74
2022/08/18 01:39:32;;;;;;;2.83;1.20;;;;;;;20.74;100.00;97790.88;15278095;19;20622;-74
2022/08/18 01:44:57;;;;;;;5.22;1.30;;;;;;;20.60;100.00;97801.25;15277914;19;20019;-74
2022/08/18 01:50:02;;;;;;;2.10;1.17;;;;;;;20.52;100.00;97798.06;15275848;19;20026;-73
2022/08/18 01:55:10;;;;;;;2.20;1.15;;;;;;;20.47;100.00;97804.25;15283094;19;20007;-74
2022/08/18 02:00:20;;;;;;;3.55;1.30;;;;;;;20.36;100.00;97795.00;15280379;19;20905;-73
2022/08/18 02:05:33;;;;;;;2.53;1.23;;;;;;;20.24;100.00;97792.28;15281146;19;20006;-75
2022/08/18 02:10:41;;;;;;;6.03;1.30;;;;;;;20.17;100.00;97800.63;15272525;19;20704;-74
2022/08/18 02:15:46;;;;;;;4.03;1.30;;;;;;;20.08;100.00;97810.25;15278159;19;20032;-75
2022/08/18 02:20:51;;;;;;;5.07;1.50;;;;;;;20.05;100.00;97810.72;15280298;19;20022;-74
2022/08/18 02:25:58;;;;;;;1.88;1.20;;;;;;;20.00;100.00;97808.69;15281119;19;20034;-74
2022/08/18 02:31:06;;;;;;;3.58;1.50;;;;;;;19.96;100.00;97815.72;15276779;19;20381;-74
2022/08/18 02:36:15;;;;;;;5.30;1.50;;;;;;;19.93;100.00;97818.94;15277962;19;20078;-74
2022/08/18 02:41:24;;;;;;;4.47;1.20;;;;;;;19.91;100.00;97812.03;15268366;19;20038;-74
2022/08/18 02:46:32;;;;;;;4.32;1.50;;;;;;;19.87;100.00;97819.88;15278749;19;20073;-74
2022/08/18 02:51:37;;;;;;;4.63;1.60;;;;;;;19.87;100.00;97817.13;15271170;19;20281;-74
2022/08/18 02:56:45;;;;;;;3.58;1.50;;;;;;;19.84;100.00;97804.75;15280282;19;20042;-74
2022/08/18 03:01:53;;;;;;;5.63;1.45;;;;;;;19.80;100.00;97797.25;15277949;19;20162;-72
2022/08/18 03:06:59;;;;;;;3.45;1.60;;;;;;;19.79;100.00;97795.59;15284020;19;20491;-73
2022/08/18 03:12:12;;;;;;;3.08;1.50;;;;;;;19.74;100.00;97782.66;15343150;19;20006;-74
2022/08/18 03:17:17;;;;;;;6.68;1.60;;;;;;;19.69;100.00;97785.25;15324349;19;20538;-75
2022/08/18 03:22:22;;;;;;;3.60;1.60;;;;;;;19.63;100.00;97778.81;15284419;19;20015;-74
2022/08/18 03:27:35;;;;;;;6.47;1.75;;;;;;;19.60;100.00;97776.53;15290972;19;20046;-75
2022/08/18 03:32:40;;;;;;;4.45;1.50;;;;;;;19.52;100.00;97779.63;15286273;19;20010;-75
2022/08/18 03:37:49;;;;;;;4.90;1.50;;;;;;;19.50;100.00;97773.56;15291251;19;20108;-75
2022/08/18 03:42:57;;;;;;;3.35;1.30;;;;;;;19.51;100.00;97780.69;15288620;19;20482;-75
2022/08/18 03:48:06;;;;;;;;;;;;;;;19.44;100.00;97780.81;15282609;19;20018;-75
2022/08/18 03:53:10;;;;;;;4.10;1.50;;;;;;;19.42;100.00;97779.38;15276969;19;19917;-75
2022/08/18 03:58:18;;;;;;;5.03;1.40;;;;;;;19.37;100.00;97782.81;15285240;19;20038;-75
2022/08/18 04:03:23;;;;;;;5.97;2.80;;;;;;;19.12;100.00;97792.00;15283863;19;20369;-74
2022/08/18 04:08:27;;;;;;;7.10;3.75;;;;;;;19.06;100.00;97799.22;15279904;19;20011;-75
2022/08/18 04:13:38;;;;;;;6.18;2.00;;;;;;;19.00;100.00;97796.59;15283249;19;20030;-75
2022/08/18 04:18:43;;;;;;;5.75;1.80;;;;;;;18.85;100.00;97795.06;15271354;19;20026;-76
2022/08/18 04:23:47;;;;;;;3.42;1.70;;;;;;;18.84;100.00;97800.78;15278498;19;20010;-74
2022/08/18 04:28:55;;;;;;;4.30;1.80;;;;;;;18.75;100.00;97801.09;15276905;19;20479;-75
2022/08/18 04:34:02;;;;;;;5.57;1.80;;;;;;;18.67;100.00;97814.22;15281697;19;20014;-75
2022/08/18 04:39:09;;;;;;;3.40;1.52;;;;;;;18.60;100.00;97814.28;15281315;19;20011;-75
2022/08/18 04:44:17;;;;;;;4.95;1.60;;;;;;;18.56;100.00;97811.19;15284765;19;20007;-76
2022/08/18 04:49:24;;;;;;;8.65;1.95;;;;;;;18.57;100.00;97806.56;15277701;19;20015;-75
2022/08/18 04:54:29;;;;;;;6.85;1.67;;;;;;;18.60;100.00;97814.28;15279898;19;20022;-75
2022/08/18 04:59:37;;;;;;;5.15;1.60;;;;;;;18.65;100.00;97825.31;15276334;19;20025;-77
2022/08/18 05:04:45;;;;;;;4.60;1.60;;;;;;;18.68;100.00;97826.78;15283261;19;20002;-73
2022/08/18 05:09:53;;;;;;;4.93;1.55;;;;;;;18.72;100.00;97825.25;15279737;19;20341;-74
2022/08/18 05:15:01;;;;;;;3.55;1.58;;;;;;;18.72;100.00;97831.56;15276535;19;20404;-74
2022/08/18 05:20:08;;;;;;;4.50;1.50;;;;;;;18.72;100.00;97839.75;15276108;19;20503;-75
2022/08/18 05:25:15;;;;;;;4.85;1.60;;;;;;;18.73;100.00;97857.78;15271985;19;20042;-75
2022/08/18 05:30:22;;;;;;;4.25;1.40;;;;;;;18.85;100.00;97868.75;15267408;19;20014;-75
2022/08/18 05:35:32;;;;;;;6.85;1.70;;;;;;;18.95;100.00;97884.63;15273224;19;20020;-74
2022/08/18 05:40:38;;;;;;;2.77;1.50;;;;;;;19.06;100.00;97883.88;15275333;19;20015;-75
2022/08/18 05:45:45;;;;;;;5.00;1.40;;;;;;;19.20;100.00;97878.22;15277727;19;20085;-75
2022/08/18 05:50:51;;;;;;;5.38;1.50;;;;;;;19.31;100.00;97879.31;15277439;19;20023;-79
2022/08/18 06:01:27;;;;;;;15.77;2.00;;;;;;;19.55;100.00;97897.47;15274891;19;20025;-78
2022/08/18 06:06:34;;;;;;;9.60;1.98;;;;;;;19.62;100.00;97894.66;15276101;19;20018;-81
2022/08/18 06:11:38;;;;;;;5.93;1.55;;;;;;;19.65;100.00;97877.78;15276641;19;20007;-79
2022/08/18 06:16:55;;;;;;;7.35;1.50;;;;;;;19.74;100.00;97886.50;15276372;19;20732;-78
2022/08/18 06:22:09;;;;;;;5.68;1.48;;;;;;;19.83;100.00;97897.91;15273525;19;20021;-78
2022/08/18 06:27:22;;;;;;;9.18;1.70;;;;;;;19.91;100.00;97908.53;15272136;19;20011;-78
2022/08/18 06:32:44;;;;;;;29.10;2.50;;;;;;;19.99;100.00;97921.88;15277463;19;20011;-78
2022/08/18 06:43:18;;;;;;;25.20;2.30;;;;;;;20.19;100.00;97909.75;15280997;19;20010;-79
2022/08/18 06:48:33;;;;;;;12.57;1.90;;;;;;;20.26;100.00;97915.13;15294841;19;20371;-78
2022/08/18 06:54:00;;;;;;;23.50;2.30;;;;;;;20.35;100.00;97921.06;15293314;19;20858;-78
2022/08/18 06:59:24;;;;;;;19.25;2.20;;;;;;;20.40;100.00;97918.47;15286727;19;20014;-78
2022/08/18 07:04:41;;;;;;;28.58;2.20;;;;;;;20.42;100.00;97935.47;15298182;19;20031;-78
2022/08/18 07:09:46;;;;;;;26.00;2.13;;;;;;;20.52;100.00;97929.41;15289226;19;20014;-79
2022/08/18 07:14:53;;;;;;;21.75;2.10;;;;;;;20.50;100.00;97904.19;15287280;19;20018;-80
2022/08/18 07:20:09;;;;;;;11.43;1.80;;;;;;;20.57;100.00;97924.88;15292470;19;20014;-79
2022/08/18 07:25:23;;;;;;;17.40;1.70;;;;;;;20.63;100.00;97942.25;15295719;19;20034;-78
2022/08/18 07:30:35;;;;;;;10.07;1.70;;;;;;;20.65;100.00;97948.31;15285850;19;20006;-78
2022/08/18 07:35:49;;;;;;;13.02;1.60;;;;;;;20.76;100.00;97966.69;15292290;19;20037;-78
2022/08/18 07:40:59;;;;;;;8.77;1.70;;;;;;;20.83;100.00;97963.81;15287645;19;20114;-80
2022/08/18 07:46:14;;;;;;;8.10;1.80;;;;;;;20.96;100.00;97959.16;15293831;19;20033;-79
2022/08/18 07:51:26;;;;;;;4.72;1.63;;;;;;;21.01;100.00;97967.47;15288249;19;20010;-79
2022/08/18 07:56:51;;;;;;;7.22;1.70;;;;;;;21.04;100.00;97961.53;15293259;19;20010;-78
2022/08/18 08:02:05;;;;;;;4.82;1.40;;;;;;;21.01;100.00;97959.25;15282298;19;20025;-78
2022/08/18 08:07:19;;;;;;;5.35;1.80;;;;;;;21.03;100.00;97968.06;15289161;19;20011;-78
2022/08/18 08:12:39;;;;;;;3.42;1.35;;;;;;;21.03;100.00;97968.06;15280225;19;20017;-78
2022/08/18 08:17:49;;;;;;;3.92;1.60;;;;;;;21.00;100.00;97947.47;15288727;19;20010;-78
2022/08/18 08:23:13;;;;;;;2.13;1.58;;;;;;;21.03;100.00;97965.34;15283758;19;20006;-79
2022/08/18 08:28:31;;;;;;;3.65;1.92;;;;;;;21.07;100.00;97969.25;15288419;19;20371;-80
2022/08/18 08:33:43;;;;;;;4.68;1.88;;;;;;;21.14;100.00;97972.69;15286179;19;20018;-77
2022/08/18 08:38:57;;;;;;;7.07;1.80;;;;;;;21.19;100.00;97978.28;15254490;19;20014;-80
2022/08/18 08:44:07;;;;;;;3.47;1.60;;;;;;;21.23;100.00;97982.19;15286389;19;20358;-80
2022/08/18 08:49:27;;;;;;;4.13;1.77;;;;;;;21.32;100.00;97976.38;15290471;19;20374;-79
2022/08/18 08:54:42;;;;;;;5.65;1.70;;;;;;;21.40;100.00;97978.72;15291435;19;20025;-79
2022/08/18 08:59:51;;;;;;;8.25;2.15;;;;;;;21.44;100.00;97974.44;15297800;19;20086;-78
2022/08/18 09:05:05;;;;;;;6.72;1.60;;;;;;;21.38;100.00;97958.94;15293263;19;20006;-79
2022/08/18 09:10:42;;;;;;;7.50;1.60;;;;;;;21.45;100.00;97943.22;15288110;19;20002;-78
2022/08/18 09:16:07;;;;;;;7.57;1.63;;;;;;;21.63;100.00;97963.28;15310364;19;20007;-78
2022/08/18 09:21:33;;;;;;;8.40;1.90;;;;;;;21.72;100.00;97997.47;15336376;19;20006;-78
2022/08/18 09:26:51;;;;;;;4.40;1.85;;;;;;;21.72;100.00;97999.38;15312610;19;20415;-79
2022/08/18 09:32:29;;;;;;;6.85;1.80;;;;;;;21.77;100.00;98004.94;15296021;19;20041;-78
2022/08/18 09:37:46;;;;;;;6.10;1.90;;;;;;;21.73;100.00;97988.16;15285577;19;20676;-79
2022/08/18 09:43:05;;;;;;;10.90;2.17;;;;;;;21.55;100.00;97984.50;15272705;19;20449;-78
2022/08/18 09:48:28;;;;;;;6.82;2.28;;;;;;;21.51;100.00;98001.69;15279322;19;20027;-78
2022/08/18 09:53:52;;;;;;;10.15;2.28;;;;;;;21.25;100.00;98009.38;15279067;19;20026;-81
2022/08/18 09:59:03;;;;;;;6.18;2.50;;;;;;;20.94;100.00;98009.53;15283791;19;20085;-78
2022/08/18 10:04:29;;;;;;;13.82;3.60;;;;;;;20.74;100.00;98009.03;15286875;19;20014;-79
2022/08/18 10:09:46;;;;;;;11.90;3.50;;;;;;;20.22;100.00;97996.81;15292592;19;20014;-80
2022/08/18 10:15:14;;;;;;;10.88;3.67;;;;;;;19.79;100.00;97989.66;15284579;19;20022;-79
2022/08/18 10:20:47;;;;;;;5.97;3.88;;;;;;;19.55;100.00;97981.34;15284448;19;20541;-78
2022/08/18 10:25:53;;;;;;;8.45;3.97;;;;;;;19.54;100.00;97969.56;15289437;19;20013;-80
2022/08/18 10:31:09;;;;;;;6.40;4.40;;;;;;;19.59;100.00;97970.78;15285723;19;20015;-79
2022/08/18 10:36:40;;;;;;;4.47;4.05;;;;;;;19.60;100.00;97984.22;15284919;19;20015;-80
2022/08/18 10:42:01;;;;;;;6.43;4.30;;;;;;;19.51;100.00;97988.31;15284884;19;20084;-80
2022/08/18 10:47:20;;;;;;;6.35;4.40;;;;;;;19.44;100.00;97985.69;15282174;19;20519;-80
2022/08/18 10:52:37;;;;;;;;;;;;;;;19.33;100.00;97994.66;15278643;19;20479;-79
2022/08/18 10:58:22;;;;;;;6.95;5.03;;;;;;;19.38;100.00;97984.69;15287258;19;19922;-79
2022/08/18 11:04:10;;;;;;;9.52;5.60;;;;;;;19.44;100.00;98013.00;15282458;19;20018;-79
2022/08/18 11:09:35;;;;;;;9.55;6.40;;;;;;;19.36;100.00;98019.59;15278797;19;20670;-79
2022/08/18 11:15:15;;;;;;;8.57;5.93;;;;;;;19.45;100.00;98017.41;15282786;19;20014;-79
2022/08/18 11:20:34;;;;;;;8.65;6.90;;;;;;;19.58;100.00;98049.19;15278701;19;20015;-80
2022/08/18 11:25:40;;;;;;;8.00;6.55;;;;;;;19.74;100.00;98055.09;15273742;19;20047;-78
2022/08/18 11:30:49;;;;;;;8.50;6.20;;;;;;;19.92;100.00;98057.84;15281450;19;20494;-80
2022/08/18 11:35:59;;;;;;;8.70;5.75;;;;;;;20.11;100.00;98063.25;15287554;19;20034;-80
2022/08/18 11:41:17;;;;;;;10.80;6.45;;;;;;;20.28;100.00;98055.22;15287409;19;20066;-78
2022/08/18 11:46:32;;;;;;;6.45;5.80;;;;;;;20.45;100.00;98033.50;15297593;19;20018;-79
2022/08/18 11:51:56;;;;;;;8.75;6.05;;;;;;;20.55;100.00;98022.78;15281521;19;20429;-76
2022/08/18 11:57:45;;;;;;;10.63;6.47;;;;;;;20.62;100.00;98026.28;15277818;19;20015;-74
2022/08/18 12:03:03;;;;;;;9.13;6.65;;;;;;;20.63;100.00;98030.69;15276386;19;20777;-76
2022/08/18 12:08:22;;;;;;;8.60;7.18;;;;;;;20.61;100.00;98021.88;15283423;19;20014;-74
2022/08/18 12:13:50;;;;;;;11.45;7.78;;;;;;;20.53;100.00;98024.13;15279358;19;20011;-76
2022/08/18 12:18:59;;;;;;;8.85;7.95;;;;;;;20.36;100.00;98013.03;15284198;19;20419;-73
2022/08/18 12:24:20;;;;;;;10.77;8.50;;;;;;;20.33;100.00;98020.63;15276572;19;20041;-73
2022/08/18 12:29:32;;;;;;;18.52;9.15;;;;;;;20.27;100.00;98009.78;15277922;19;20034;-76
2022/08/18 12:34:47;;;;;;;11.82;9.40;;;;;;;20.08;100.00;97992.59;15281546;19;20367;-76
2022/08/18 12:39:59;;;;;;;16.02;8.35;;;;;;;20.07;100.00;97982.75;15278156;19;20038;-75
2022/08/18 12:45:03;;;;;;;10.65;8.23;;;;;;;20.06;100.00;97967.41;15281368;19;20455;-75
2022/08/18 12:50:12;;;;;;;8.90;8.00;;;;;;;20.01;100.00;97949.81;15280220;19;20018;-76
2022/08/18 12:55:19;;;;;;;10.48;7.38;;;;;;;20.08;100.00;97940.66;15273933;19;20483;-75
2022/08/18 13:00:25;;;;;;;10.10;6.82;;;;;;;20.20;100.00;97930.56;15279992;19;20017;-76
2022/08/18 13:05:32;;;;;;;9.07;7.28;;;;;;;20.23;100.00;97908.22;15277389;19;20546;-74
2022/08/18 13:10:40;;;;;;;7.00;6.32;;;;;;;20.38;100.00;97915.94;15279579;19;20006;-75
2022/08/18 13:15:49;;;;;;;7.32;6.25;;;;;;;20.60;100.00;97964.59;15277133;19;20045;-76
2022/08/18 13:21:03;;;;;;;7.38;6.00;;;;;;;20.69;100.00;97957.72;15277451;19;20014;-73
2022/08/18 13:26:18;;;;;;;10.43;5.90;;;;;;;20.74;100.00;97938.69;15271684;19;20334;-75
2022/08/18 13:31:23;;;;;;;8.63;5.78;;;;;;;20.81;100.00;97938.56;15275568;19;20016;-75
2022/08/18 13:36:43;;;;;;;7.68;6.00;;;;;;;20.88;100.00;97922.03;15270279;19;20010;-76
2022/08/18 13:41:53;;;;;;;9.38;6.70;;;;;;;21.01;100.00;97926.41;15274392;19;20010;-74
2022/08/18 13:47:00;;;;;;;6.38;5.70;;;;;;;21.18;100.00;97919.09;15278423;19;20022;-74
2022/08/18 13:52:06;;;;;;;10.05;5.60;;;;;;;21.37;100.00;97919.75;15246202;19;20021;-76
2022/08/18 13:57:27;;;;;;;11.40;5.83;;;;;;;21.56;100.00;97905.84;15268981;19;20273;-76
2022/08/18 14:02:33;;;;;;;7.90;5.80;;;;;;;21.83;100.00;97892.38;15271835;19;20320;-72
2022/08/18 14:07:37;;;;;;;7.18;5.35;;;;;;;22.18;100.00;97890.50;15272362;19;20010;-76
2022/08/18 14:12:47;;;;;;;8.50;5.10;;;;;;;22.57;100.00;97887.81;15274593;19;20010;-76
2022/08/18 14:17:53;;;;;;;6.78;5.53;;;;;;;22.66;100.00;97887.38;15276397;19;20097;-75
2022/08/18 14:28:28;;;;;;;7.30;5.03;;;;;;;22.81;100.00;97884.00;15275619;19;20051;-76
2022/08/18 14:33:34;;;;;;;16.33;5.20;;;;;;;22.85;100.00;97874.19;15291060;19;20032;-74
2022/08/18 14:38:56;;;;;;;6.70;4.40;;;;;;;23.32;100.00;97873.69;15338089;19;20019;-72
2022/08/18 14:44:03;;;;;;;5.47;4.10;;;;;;;23.64;100.00;97848.16;15277021;19;20010;-75
2022/08/18 14:49:17;;;;;;;5.70;3.70;;;;;;;23.73;100.00;97847.66;15276623;19;20086;-74
2022/08/18 14:54:33;;;;;;;5.47;3.55;;;;;;;24.07;100.00;97851.03;15285986;19;20006;-75
2022/08/18 14:59:40;;;;;;;4.93;3.95;;;;;;;24.18;100.00;97840.09;15273084;19;20018;-75
2022/08/18 15:04:47;;;;;;;5.65;3.13;;;;;;;24.40;100.00;97842.72;15269741;19;20030;-74
2022/08/18 15:10:01;;;;;;;5.80;3.50;;;;;;;24.49;100.00;97838.34;15283486;19;20032;-75
2022/08/18 15:15:22;;;;;;;7.70;3.60;;;;;;;24.83;100.00;97846.25;15286511;19;20081;-75
2022/08/18 15:20:29;;;;;;;6.25;3.33;;;;;;;24.91;100.00;97840.22;15283198;19;20433;-75
2022/08/18 15:25:43;;;;;;;6.47;3.28;;;;;;;24.72;100.00;97855.59;15285828;19;20019;-73
2022/08/18 15:30:53;;;;;;;7.75;3.60;;;;;;;24.38;100.00;97844.91;15282821;19;20022;-74
2022/08/18 15:36:20;;;;;;;5.35;3.60;;;;;;;24.34;100.00;97828.09;15279638;19;20074;-73
2022/08/18 15:41:36;;;;;;;5.15;3.50;;;;;;;24.19;100.00;97827.97;15283987;19;20029;-74
2022/08/18 15:46:52;;;;;;;6.65;3.67;;;;;;;24.38;100.00;97822.88;15288595;19;20011;-73
2022/08/18 15:52:00;;;;;;;4.38;3.40;;;;;;;24.27;100.00;97825.56;15287223;19;20482;-74
2022/08/18 15:57:05;;;;;;;4.57;3.33;;;;;;;24.12;100.00;97817.19;15285859;19;20014;-75
2022/08/18 16:02:12;;;;;;;4.80;3.40;;;;;;;23.93;100.00;97820.31;15283633;19;20029;-74
2022/08/18 16:07:22;;;;;;;8.15;3.85;;;;;;;23.64;100.00;97814.31;15279970;19;20010;-76
2022/08/18 16:12:44;;;;;;;6.80;3.95;;;;;;;23.56;100.00;97807.38;15276965;19;20663;-74
2022/08/18 16:17:55;;;;;;;6.10;3.80;;;;;;;23.46;100.00;97788.06;15274371;19;20035;-73
2022/08/18 16:23:00;;;;;;;5.50;4.20;;;;;;;23.15;100.00;97787.72;15279659;19;20006;-74
2022/08/18 16:28:05;;;;;;;6.10;3.83;;;;;;;23.01;100.00;97779.88;15281401;19;20010;-74
2022/08/18 16:33:13;;;;;;;7.22;3.80;;;;;;;23.09;100.00;97784.94;15277166;19;20045;-74
2022/08/18 16:38:18;;;;;;;4.30;3.70;;;;;;;23.24;100.00;97780.69;15275054;19;20018;-73
2022/08/18 16:43:22;;;;;;;4.88;3.92;;;;;;;23.48;100.00;97766.59;15275729;19;20014;-74
2022/08/18 16:48:31;;;;;;;5.50;3.60;;;;;;;23.61;100.00;97768.09;15277685;19;20019;-74
2022/08/18 16:53:37;;;;;;;8.80;3.75;;;;;;;23.74;100.00;97775.06;15274559;19;20609;-72
2022/08/18 17:04:10;;;;;;;7.70;4.00;;;;;;;23.60;100.00;97756.25;15275658;19;20010;-73
2022/08/18 17:09:25;;;;;;;6.15;4.03;;;;;;;23.64;100.00;97756.56;15282299;19;21051;-74
2022/08/18 17:14:35;;;;;;;6.93;4.50;;;;;;;23.50;100.00;97775.44;15318142;19;20033;-73
2022/08/18 17:19:43;;;;;;;7.20;4.30;;;;;;;23.41;100.00;97774.25;15313150;19;20439;-73
2022/08/18 17:24:50;;;;;;;6.13;4.20;;;;;;;23.24;100.00;97773.28;15282632;19;20446;-74
2022/08/18 17:30:02;;;;;;;8.60;4.85;;;;;;;23.05;100.00;97771.97;15276612;19;20030;-74
2022/08/18 17:35:19;;;;;;;5.28;4.78;;;;;;;22.82;100.00;97781.31;15276424;19;20026;-75
2022/08/18 17:40:31;;;;;;;5.57;4.60;;;;;;;22.80;100.00;97784.31;15276807;19;20050;-75
2022/08/18 17:45:37;;;;;;;6.00;4.97;;;;;;;22.69;100.00;97777.88;15269754;19;20042;-74
2022/08/18 17:56:11;;;;;;;5.43;4.80;;;;;;;22.57;100.00;97810.13;15280307;19;20019;-75
2022/08/18 18:01:16;;;;;;;6.28;4.70;;;;;;;22.47;100.00;97828.13;15277864;19;20049;-73
2022/08/18 18:06:32;;;;;;;9.15;4.53;;;;;;;22.34;100.00;97833.94;15276710;19;20014;-72
2022/08/18 18:11:40;;;;;;;6.68;4.72;;;;;;;22.22;100.00;97835.94;15272116;19;20356;-72
2022/08/18 18:16:45;;;;;;;6.15;4.38;;;;;;;22.19;100.00;97842.78;15273748;19;20014;-74
2022/08/18 18:22:05;;;;;;;6.45;4.50;;;;;;;22.02;100.00;97842.78;15276323;19;20011;-75
2022/08/18 18:27:29;;;;;;;5.82;4.47;;;;;;;21.98;100.00;97836.97;15253741;19;20030;-74
2022/08/18 18:32:37;;;;;;;8.38;4.60;;;;;;;21.91;100.00;97835.47;15272414;19;20014;-82
2022/08/18 18:37:48;;;;;;;5.00;4.50;;;;;;;21.76;100.00;97828.66;15250531;19;20020;-84
2022/08/18 18:42:53;;;;;;;8.13;4.80;;;;;;;21.68;100.00;97826.34;15291001;19;20026;-79
2022/08/18 18:48:05;;;;;;;6.13;4.90;;;;;;;21.66;100.00;97832.06;15288212;19;20006;-80
2022/08/18 18:53:24;;;;;;;6.07;4.78;;;;;;;21.57;100.00;97825.28;15288282;19;20014;-80
2022/08/18 18:58:41;;;;;;;9.05;5.18;;;;;;;21.52;100.00;97823.28;15287430;19;20007;-80
2022/08/18 19:03:48;;;;;;;5.88;4.80;;;;;;;21.51;100.00;97832.59;15312220;19;20596;-79
2022/08/18 19:09:07;;;;;;;5.28;4.78;;;;;;;21.45;100.00;97833.59;15313182;19;20049;-80
2022/08/18 19:14:16;;;;;;;9.02;5.28;;;;;;;21.45;100.00;97847.28;15315088;19;20018;-81
2022/08/18 19:19:27;;;;;;;9.15;5.13;;;;;;;21.44;100.00;97858.47;15290567;19;20019;-79
2022/08/18 19:24:55;;;;;;;6.47;4.70;;;;;;;21.50;100.00;97868.47;15295028;19;20017;-79
2022/08/18 19:30:05;;;;;;;5.78;5.05;;;;;;;21.52;100.00;97880.03;15287828;19;20022;-82
2022/08/18 19:35:15;;;;;;;5.60;5.00;;;;;;;21.52;100.00;97872.63;15291460;19;20014;-82
2022/08/18 19:40:30;;;;;;;6.88;4.90;;;;;;;21.49;100.00;97867.63;15291380;19;20023;-81
2022/08/18 19:45:43;;;;;;;5.63;4.70;;;;;;;21.49;100.00;97873.09;15295353;19;20011;-81
2022/08/18 19:50:54;;;;;;;5.88;4.55;;;;;;;21.46;100.00;97879.06;15289017;19;20042;-80
2022/08/18 19:56:12;;;;;;;;;;;;;;;21.34;100.00;97870.09;15291065;19;20014;-79
2022/08/18 20:01:32;;;;;;;5.20;4.70;;;;;;;21.37;100.00;97864.97;15279646;19;19985;-79
2022/08/18 20:07:04;;;;;;;5.28;4.80;;;;;;;21.28;100.00;97860.09;15290240;19;20027;-79
2022/08/18 20:12:22;;;;;;;5.07;4.63;;;;;;;21.34;100.00;97853.66;15294735;19;20010;-79
2022/08/18 20:17:27;;;;;;;5.70;4.22;;;;;;;21.35;100.00;97842.44;15300026;19;20018;-79
2022/08/18 20:22:37;;;;;;;4.75;4.25;;;;;;;21.28;100.00;97835.44;15297418;19;20423;-79
2022/08/18 20:27:46;;;;;;;5.73;4.90;;;;;;;21.17;100.00;97827.03;15295310;19;20044;-78
2022/08/18 20:33:09;;;;;;;5.40;4.90;;;;;;;21.04;100.00;97821.84;15288705;19;20002;-79
2022/08/18 20:38:19;;;;;;;6.03;4.68;;;;;;;21.01;100.00;97817.72;15307734;19;20364;-81
2022/08/18 20:43:33;;;;;;;5.40;4.90;;;;;;;20.85;100.00;97802.88;15348492;19;20086;-83
2022/08/18 20:49:04;;;;;;;6.55;4.85;;;;;;;20.82;100.00;97792.41;15297982;19;20038;-80
2022/08/18 20:54:28;;;;;;;5.78;5.13;;;;;;;20.72;100.00;97787.53;15284757;19;20006;-79
2022/08/18 20:59:39;;;;;;;5.60;5.10;;;;;;;20.74;100.00;97798.25;15279580;19;20011;-78
2022/08/18 21:04:50;;;;;;;6.60;5.13;;;;;;;20.80;100.00;97810.16;15279551;19;20565;-79
2022/08/18 21:10:00;;;;;;;5.57;5.07;;;;;;;20.81;100.00;97823.59;15284445;19;20011;-78
2022/08/18 21:15:19;;;;;;;7.90;5.43;;;;;;;20.75;100.00;97836.34;15291457;19;20554;-78
2022/08/18 21:20:25;;;;;;;4.70;4.30;;;;;;;20.76;100.00;97842.66;15285789;19;20010;-80
2022/08/18 21:25:31;;;;;;;6.72;5.35;;;;;;;20.72;100.00;97841.47;15287946;19;20049;-80
2022/08/18 21:30:38;;;;;;;5.47;4.97;;;;;;;20.63;100.00;97833.63;15280645;19;20359;-79
2022/08/18 21:35:43;;;;;;;5.38;4.88;;;;;;;20.64;100.00;97839.91;15289651;19;20018;-78
2022/08/18 21:40:50;;;;;;;6.10;5.30;;;;;;;20.66;100.00;97839.66;15277144;19;20018;-80
2022/08/18 21:45:59;;;;;;;5.60;5.03;;;;;;;20.65;100.00;97841.59;15291715;19;20007;-78
2022/08/18 21:51:05;;;;;;;5.55;4.90;;;;;;;20.61;100.00;97851.34;15288587;19;20007;-78
2022/08/18 21:56:21;;;;;;;5.25;4.75;;;;;;;20.49;100.00;97848.63;15284297;19;20011;-79
2022/08/18 22:01:30;;;;;;;5.68;5.18;;;;;;;20.38;100.00;97866.72;15270367;19;20128;-79
2022/08/18 22:06:40;;;;;;;5.57;5.07;;;;;;;20.28;100.00;97867.34;15284824;19;20007;-80
2022/08/18 22:17:41;;;;;;;5.35;4.68;;;;;;;20.21;100.00;97877.53;15306638;19;20388;-79
2022/08/18 22:28:04;;;;;;;5.53;5.00;;;;;;;20.13;100.00;97897.03;15303708;19;20015;-79
2022/08/18 22:33:12;;;;;;;6.28;5.68;;;;;;;20.07;100.00;97897.97;15279285;19;20022;-77
2022/08/18 22:38:17;;;;;;;6.82;5.93;;;;;;;20.05;100.00;97897.41;15289338;19;20014;-78
2022/08/18 22:43:22;;;;;;;6.95;6.25;;;;;;;19.94;100.00;97899.84;15308128;19;20007;-78
2022/08/18 22:48:30;;;;;;;8.07;6.47;;;;;;;19.92;100.00;97909.38;15308017;19;20007;-78
2022/08/18 22:53:35;;;;;;;6.97;6.38;;;;;;;19.88;100.00;97903.53;15286941;19;20189;-78
2022/08/18 22:58:41;;;;;;;7.03;6.43;;;;;;;19.79;100.00;97904.91;15277625;19;20545;-77
2022/08/18 23:03:51;;;;;;;7.97;7.15;;;;;;;19.74;100.00;97912.97;15269701;19;20018;-77
2022/08/18 23:08:55;;;;;;;8.23;7.40;;;;;;;19.60;100.00;97912.34;15274711;19;20467;-77
2022/08/18 23:14:02;;;;;;;9.27;7.93;;;;;;;19.50;100.00;97907.44;15265683;19;20015;-77
2022/08/18 23:19:09;;;;;;;10.70;8.75;;;;;;;19.36;100.00;97902.16;15268566;19;20021;-77
2022/08/18 23:24:16;;;;;;;11.82;9.77;;;;;;;19.31;100.00;97902.03;15273491;19;20018;-77
2022/08/18 23:29:21;;;;;;;11.65;10.15;;;;;;;19.27;100.00;97917.19;15286591;19;20026;-75
2022/08/18 23:34:29;;;;;;;11.35;10.15;;;;;;;19.24;100.00;97915.75;15281173;19;20034;-75
2022/08/18 23:39:37;;;;;;;10.70;9.60;;;;;;;19.21;100.00;97929.06;15279116;19;20006;-75
2022/08/18 23:44:42;;;;;;;9.45;8.52;;;;;;;19.15;100.00;97930.81;15280740;19;20058;-79
2022/08/18 23:49:50;;;;;;;14.40;10.07;;;;;;;19.14;100.00;97925.56;15280291;19;20015;-77
2022/08/18 23:54:55;;;;;;;12.10;10.98;;;;;;;19.01;100.00;97938.28;14770665;19;10000023;-77
